Terminal Aerodrome Forecast
Issued by NWS Cleveland, OH

Home | Current Version | Previous Version | Text Only | Print | Product List | Glossary Off
Versions: 1 2 3 4 5 6 7 8 9 10 11 12 13 14 15

000
FTUS41 KCLE 241500 AAB
TAFTOL
TAF AMD
KTOL 241504Z 2415/2512 21020G35KT P6SM VCSH SCT015 BKN050
     FM241600 22028G40KT P6SM SCT015 OVC020
      TEMPO 2416/2418 3SM -SHRA
     FM241800 23028G40KT P6SM BKN015
      TEMPO 2418/2421 24030G45KT
     FM242300 24022G30KT P6SM OVC025
     FM250600 24015G25KT P6SM OVC035=

USA.gov is the U.S. government's official web portal to all federal, state and local government web resources and services.